createdAt,value
2023-01-19T00:02:49.729Z,0.38
2023-01-19T00:06:48.650Z,0.35
2023-01-19T00:10:50.193Z,0.32
2023-01-19T00:18:50.602Z,0.29
2023-01-19T00:22:49.963Z,0.27
2023-01-19T00:26:48.720Z,0.25
2023-01-19T00:30:49.902Z,0.21
2023-01-19T00:34:48.889Z,0.19
2023-01-19T00:38:48.516Z,0.15
2023-01-19T00:50:48.760Z,0.10
2023-01-19T00:54:48.834Z,0.07
2023-01-19T00:58:48.758Z,0.08
2023-01-19T01:06:48.798Z,0.07
2023-01-19T01:10:49.423Z,0.06
2023-01-19T01:18:48.728Z,0.00
2023-01-19T01:22:51.204Z,-0.06
2023-01-19T01:26:48.893Z,-0.07
2023-01-19T01:30:52.893Z,-0.10
2023-01-19T01:34:48.652Z,-0.11
2023-01-19T01:38:48.921Z,-0.13
2023-01-19T01:42:48.830Z,-0.10
2023-01-19T01:51:01.863Z,-0.07
2023-01-19T01:54:48.905Z,-0.04
2023-01-19T01:58:48.900Z,0.00
2023-01-19T02:02:50.008Z,0.01
2023-01-19T02:10:58.990Z,-0.01
2023-01-19T02:14:48.747Z,-0.08
2023-01-19T02:18:49.155Z,-0.16
2023-01-19T02:22:50.969Z,-0.20
2023-01-19T02:26:50.269Z,-0.25
2023-01-19T02:30:48.894Z,-0.34
2023-01-19T02:34:49.071Z,-0.28
2023-01-19T02:38:50.907Z,-0.26
2023-01-19T02:42:51.402Z,-0.23
2023-01-19T02:46:48.879Z,-0.22
2023-01-19T02:50:52.115Z,-0.21
2023-01-19T02:55:00.730Z,-0.19
2023-01-19T02:58:57.786Z,-0.20
2023-01-19T03:03:05.174Z,-0.21
2023-01-19T03:10:57.267Z,-0.23
2023-01-19T03:18:52.989Z,-0.24
2023-01-19T03:22:53.043Z,-0.29
2023-01-19T03:26:56.792Z,-0.31
2023-01-19T03:34:52.041Z,-0.32
2023-01-19T03:38:50.142Z,-0.33
2023-01-19T03:42:49.722Z,-0.34
2023-01-19T03:46:50.414Z,-0.41
2023-01-19T03:50:50.434Z,-0.45
2023-01-19T03:54:48.947Z,-0.51
2023-01-19T03:58:50.046Z,-0.52
2023-01-19T04:02:49.265Z,-0.53
2023-01-19T04:06:49.245Z,-0.54
2023-01-19T04:10:49.164Z,-0.53
2023-01-19T04:18:49.579Z,-0.55
2023-01-19T04:22:49.308Z,-0.58
2023-01-19T04:26:51.188Z,-0.60
2023-01-19T04:30:49.196Z,-0.62
2023-01-19T04:34:49.730Z,-0.64
2023-01-19T04:38:49.465Z,-0.66
2023-01-19T04:42:49.972Z,-0.68
2023-01-19T04:46:50.587Z,-0.71
2023-01-19T04:50:51.120Z,-0.73
2023-01-19T04:58:49.444Z,-0.76
2023-01-19T05:02:49.201Z,-0.77
2023-01-19T05:06:49.310Z,-0.80
2023-01-19T05:10:49.464Z,-0.82
2023-01-19T05:14:49.523Z,-0.85
2023-01-19T05:18:49.341Z,-0.86
2023-01-19T05:22:50.490Z,-0.87
2023-01-19T05:30:49.647Z,-0.89
2023-01-19T05:34:49.239Z,-0.87
2023-01-19T05:38:49.439Z,-0.88
2023-01-19T05:46:49.671Z,-0.92
2023-01-19T05:50:49.504Z,-0.98
2023-01-19T05:58:49.515Z,-0.94
2023-01-19T06:02:49.743Z,-0.92
2023-01-19T06:06:50.002Z,-0.89
2023-01-19T06:10:49.723Z,-0.91
2023-01-19T06:14:49.706Z,-0.89
2023-01-19T06:18:49.389Z,-0.91
2023-01-19T06:22:49.651Z,-0.95
2023-01-19T06:26:49.384Z,-0.97
2023-01-19T06:30:50.575Z,-1.02
2023-01-19T06:34:49.603Z,-1.07
2023-01-19T06:38:49.612Z,-1.16
2023-01-19T06:42:49.493Z,-1.25
2023-01-19T06:46:49.523Z,-1.33
2023-01-19T06:50:49.636Z,-1.36
2023-01-19T06:54:49.750Z,-1.37
2023-01-19T06:58:50.893Z,-1.41
2023-01-19T07:02:49.881Z,-1.38
2023-01-19T07:06:49.652Z,-1.36
2023-01-19T07:22:55.138Z,-1.34
2023-01-19T07:30:50.907Z,-1.32
2023-01-19T07:38:49.632Z,-1.29
2023-01-19T07:42:51.036Z,-1.30
2023-01-19T07:50:49.939Z,-1.29
2023-01-19T07:54:50.023Z,-1.25
2023-01-19T07:58:51.413Z,-1.21
2023-01-19T08:02:50.851Z,-1.20
2023-01-19T08:14:50.014Z,-1.18
2023-01-19T08:18:49.802Z,-1.17
2023-01-19T08:26:57.571Z,-1.15
2023-01-19T08:30:53.085Z,-1.14
2023-01-19T08:46:50.137Z,-1.12
2023-01-19T08:50:51.645Z,-1.09
2023-01-19T08:54:50.025Z,-1.05
2023-01-19T08:59:03.507Z,-1.01
2023-01-19T09:02:50.685Z,-0.87
2023-01-19T09:06:49.934Z,-0.71
2023-01-19T09:10:50.643Z,-0.61
2023-01-19T09:14:49.840Z,-0.54
2023-01-19T09:18:50.030Z,-0.47
2023-01-19T09:22:50.026Z,-0.44
2023-01-19T09:26:50.554Z,-0.39
2023-01-19T09:30:50.561Z,-0.33
2023-01-19T09:34:50.172Z,-0.23
2023-01-19T09:38:50.728Z,-0.16
2023-01-19T09:42:55.300Z,-0.10
2023-01-19T09:46:50.026Z,-0.02
2023-01-19T09:50:50.320Z,0.03
2023-01-19T09:54:53.279Z,0.05
2023-01-19T09:58:50.845Z,0.08
2023-01-19T10:02:54.556Z,0.10
2023-01-19T10:06:53.554Z,0.14
2023-01-19T10:10:53.183Z,0.17
2023-01-19T10:14:58.507Z,0.23
2023-01-19T10:18:52.989Z,0.29
2023-01-19T10:22:51.382Z,0.35
2023-01-19T10:30:52.365Z,0.33
2023-01-19T10:34:51.516Z,0.30
2023-01-19T10:46:51.755Z,0.35
2023-01-19T10:51:01.444Z,0.40
2023-01-19T10:54:50.803Z,0.44
2023-01-19T10:58:50.135Z,0.50
2023-01-19T11:02:50.516Z,0.53
2023-01-19T11:06:50.392Z,0.57
2023-01-19T11:10:54.689Z,0.59
2023-01-19T11:14:51.326Z,0.61
2023-01-19T11:18:52.588Z,0.62
2023-01-19T11:23:04.390Z,0.68
2023-01-19T11:26:56.556Z,0.75
2023-01-19T11:30:55.026Z,0.80
2023-01-19T11:34:50.336Z,0.83
2023-01-19T11:38:52.338Z,0.91
2023-01-19T11:42:50.375Z,1.07
2023-01-19T11:46:53.983Z,1.22
2023-01-19T11:50:50.731Z,1.34
2023-01-19T11:54:56.908Z,1.44
2023-01-19T11:58:50.704Z,1.56
2023-01-19T12:02:55.260Z,1.63
2023-01-19T12:06:53.678Z,1.70
2023-01-19T12:10:53.238Z,1.82
2023-01-19T12:14:54.551Z,1.94
2023-01-19T12:18:56.446Z,2.05
2023-01-19T12:22:59.482Z,2.13
2023-01-19T12:26:54.816Z,2.20
2023-01-19T12:30:51.384Z,2.22
2023-01-19T12:34:50.928Z,2.25
2023-01-19T12:38:53.884Z,2.28
2023-01-19T12:42:56.234Z,2.27
2023-01-19T12:46:54.257Z,2.28
2023-01-19T12:50:50.535Z,2.31
2023-01-19T12:54:57.030Z,2.33
2023-01-19T12:58:50.621Z,2.38
2023-01-19T13:02:52.366Z,2.39
2023-01-19T13:07:09.955Z,2.36
2023-01-19T13:11:12.049Z,2.39
2023-01-19T13:15:10.170Z,2.43
2023-01-19T13:18:54.042Z,2.40
2023-01-19T13:23:10.345Z,2.32
2023-01-19T13:26:54.224Z,2.31
2023-01-19T13:30:54.339Z,2.27
2023-01-19T13:34:56.440Z,2.29
2023-01-19T13:38:51.980Z,2.30
2023-01-19T13:42:52.403Z,2.29
2023-01-19T13:51:03.210Z,2.35
2023-01-19T13:54:53.337Z,2.44
2023-01-19T13:59:04.071Z,2.53
2023-01-19T14:02:56.047Z,2.62
2023-01-19T14:06:54.569Z,2.66
2023-01-19T14:11:01.313Z,2.63
2023-01-19T14:14:50.955Z,2.55
2023-01-19T14:18:58.467Z,2.49
2023-01-19T14:22:50.914Z,2.41
2023-01-19T14:26:52.909Z,2.34
2023-01-19T14:35:03.269Z,2.35
2023-01-19T14:38:51.828Z,2.33
2023-01-19T14:42:53.163Z,2.37
2023-01-19T14:46:51.199Z,2.40
2023-01-19T14:51:03.467Z,2.45
2023-01-19T14:54:53.090Z,2.48
2023-01-19T14:58:50.973Z,2.50
2023-01-19T15:02:50.836Z,2.52
2023-01-19T15:14:51.013Z,2.43
2023-01-19T15:18:51.052Z,2.40
2023-01-19T15:22:50.956Z,2.39
2023-01-19T15:26:51.020Z,2.41
2023-01-19T15:30:52.749Z,2.43
2023-01-19T15:34:50.906Z,2.47
2023-01-19T15:38:51.362Z,2.52
2023-01-19T15:42:50.907Z,2.56
2023-01-19T15:46:53.182Z,2.59
2023-01-19T15:50:50.942Z,2.64
2023-01-19T15:54:51.112Z,2.70
2023-01-19T15:58:51.764Z,2.74
2023-01-19T16:02:51.348Z,2.77
2023-01-19T16:06:51.072Z,2.73
2023-01-19T16:10:51.140Z,2.60
2023-01-19T16:14:50.855Z,2.37
2023-01-19T16:18:51.399Z,2.20
2023-01-19T16:22:51.047Z,2.02
2023-01-19T16:26:51.377Z,1.91
2023-01-19T16:30:51.820Z,1.84
2023-01-19T16:34:51.185Z,1.76
2023-01-19T16:38:51.368Z,1.69
2023-01-19T16:42:51.150Z,1.58
2023-01-19T16:46:51.116Z,1.57
2023-01-19T16:51:01.302Z,1.66
2023-01-19T16:54:53.650Z,1.78
2023-01-19T16:58:52.591Z,1.96
2023-01-19T17:02:51.262Z,2.12
2023-01-19T17:06:51.218Z,2.21
2023-01-19T17:10:51.343Z,2.23
2023-01-19T17:14:52.407Z,2.26
2023-01-19T17:18:51.346Z,2.28
2023-01-19T17:22:51.416Z,2.29
2023-01-19T17:30:51.992Z,2.28
2023-01-19T17:34:51.125Z,2.24
2023-01-19T17:38:53.097Z,2.21
2023-01-19T17:42:51.333Z,2.17
2023-01-19T17:46:51.439Z,2.05
2023-01-19T17:50:53.128Z,1.95
2023-01-19T17:54:51.469Z,1.88
2023-01-19T17:58:51.182Z,1.74
2023-01-19T18:02:51.553Z,1.60
2023-01-19T18:06:56.147Z,1.56
2023-01-19T18:10:53.531Z,1.54
2023-01-19T18:14:51.240Z,1.55
2023-01-19T18:18:52.951Z,1.44
2023-01-19T18:22:51.309Z,1.36
2023-01-19T18:26:52.449Z,1.43
2023-01-19T18:30:51.639Z,1.52
2023-01-19T18:34:53.009Z,1.59
2023-01-19T18:42:51.399Z,1.52
2023-01-19T18:46:53.640Z,1.40
2023-01-19T18:50:52.403Z,1.37
2023-01-19T18:54:51.610Z,1.34
2023-01-19T18:58:52.198Z,1.28
2023-01-19T19:02:52.281Z,1.19
2023-01-19T19:06:51.566Z,1.16
2023-01-19T19:10:51.427Z,1.19
2023-01-19T19:14:51.351Z,1.23
2023-01-19T19:18:51.796Z,1.20
2023-01-19T19:22:51.654Z,1.15
2023-01-19T19:26:51.426Z,1.16
2023-01-19T19:31:01.161Z,1.17
2023-01-19T19:34:52.163Z,1.19
2023-01-19T19:38:52.010Z,1.22
2023-01-19T19:42:51.811Z,1.24
2023-01-19T19:46:51.874Z,1.25
2023-01-19T19:50:52.047Z,1.23
2023-01-19T19:54:51.763Z,1.22
2023-01-19T19:58:54.132Z,1.23
2023-01-19T20:02:51.632Z,1.24
2023-01-19T20:06:51.601Z,1.22
2023-01-19T20:10:51.917Z,1.11
2023-01-19T20:14:51.509Z,1.00
2023-01-19T20:18:53.296Z,1.02
2023-01-19T20:22:51.916Z,1.01
2023-01-19T20:26:52.843Z,1.06
2023-01-19T20:30:53.693Z,1.12
2023-01-19T20:34:52.259Z,1.11
2023-01-19T20:42:52.067Z,1.10
2023-01-19T20:46:53.440Z,1.12
2023-01-19T20:50:56.565Z,1.10
2023-01-19T20:58:52.317Z,1.07
2023-01-19T21:02:51.915Z,1.06
2023-01-19T21:06:51.825Z,1.02
2023-01-19T21:10:54.793Z,0.97
2023-01-19T21:18:52.566Z,0.96
2023-01-19T21:22:51.896Z,0.95
2023-01-19T21:26:51.983Z,0.94
2023-01-19T21:30:52.981Z,0.93
2023-01-19T21:34:51.961Z,0.90
2023-01-19T21:38:54.486Z,0.84
2023-01-19T21:42:52.084Z,0.79
2023-01-19T21:46:51.985Z,0.73
2023-01-19T21:50:56.576Z,0.67
2023-01-19T21:54:51.823Z,0.60
2023-01-19T21:58:52.043Z,0.57
2023-01-19T22:03:03.162Z,0.55
2023-01-19T22:06:51.984Z,0.49
2023-01-19T22:10:51.929Z,0.47
2023-01-19T22:14:52.215Z,0.46
2023-01-19T22:18:55.338Z,0.50
2023-01-19T22:22:52.217Z,0.52
2023-01-19T22:30:52.283Z,0.54
2023-01-19T22:34:51.856Z,0.56
2023-01-19T22:38:54.544Z,0.60
2023-01-19T22:42:51.990Z,0.67
2023-01-19T22:46:54.635Z,0.71
2023-01-19T22:50:54.827Z,0.73
2023-01-19T22:54:55.313Z,0.76
2023-01-19T22:58:52.735Z,0.75
2023-01-19T23:02:52.152Z,0.76
2023-01-19T23:06:52.137Z,0.77
2023-01-19T23:14:52.282Z,0.76
2023-01-19T23:18:53.797Z,0.75
2023-01-19T23:22:52.142Z,0.73
2023-01-19T23:26:52.105Z,0.72
2023-01-19T23:30:52.216Z,0.68
2023-01-19T23:34:52.358Z,0.65
2023-01-19T23:38:54.048Z,0.62
2023-01-19T23:42:54.148Z,0.60
2023-01-19T23:46:52.255Z,0.58
2023-01-19T23:50:52.143Z,0.57
2023-01-19T23:54:52.443Z,0.54
2023-01-19T23:58:54.136Z,0.53
